createdAt,value
2017-12-28T00:02:21.220Z,39.53
2017-12-28T00:04:48.787Z,43.37
2017-12-28T00:07:17.101Z,43.27
2017-12-28T00:09:44.669Z,47.67
2017-12-28T00:12:12.996Z,44.27
2017-12-28T00:14:40.536Z,55.63
2017-12-28T00:17:08.103Z,50.17
2017-12-28T00:19:35.655Z,50.37
2017-12-28T00:22:03.218Z,54.00
2017-12-28T00:24:30.767Z,57.20
2017-12-28T00:26:58.339Z,57.83
2017-12-28T00:29:25.878Z,51.47
2017-12-28T00:31:53.487Z,45.93
2017-12-28T00:34:21.843Z,43.50
2017-12-28T00:36:50.229Z,39.40
2017-12-28T00:39:17.774Z,46.40
2017-12-28T00:41:45.351Z,49.37
2017-12-28T00:44:12.903Z,50.97
2017-12-28T00:46:40.438Z,44.93
2017-12-28T00:49:08.027Z,43.80
2017-12-28T00:51:36.427Z,46.87
2017-12-28T00:54:03.988Z,51.17
2017-12-28T00:56:31.537Z,60.30
2017-12-28T00:58:59.858Z,43.20
2017-12-28T01:01:27.403Z,41.07
2017-12-28T01:03:54.969Z,40.40
2017-12-28T01:06:22.544Z,53.03
2017-12-28T01:08:50.108Z,41.30
2017-12-28T01:11:17.651Z,47.07
2017-12-28T01:13:45.979Z,50.80
2017-12-28T01:16:13.528Z,56.13
2017-12-28T01:18:41.096Z,54.00
2017-12-28T01:21:08.633Z,62.83
2017-12-28T01:23:36.196Z,50.70
2017-12-28T01:26:04.518Z,44.77
2017-12-28T01:28:32.050Z,48.33
2017-12-28T01:30:59.607Z,52.73
2017-12-28T01:33:27.152Z,49.60
2017-12-28T01:35:55.484Z,42.83
2017-12-28T01:38:23.088Z,49.53
2017-12-28T01:40:51.612Z,54.80
2017-12-28T01:43:19.154Z,50.93
2017-12-28T01:45:46.714Z,43.00
2017-12-28T01:48:15.019Z,44.87
2017-12-28T01:50:44.699Z,42.53
2017-12-28T01:53:13.480Z,45.60
2017-12-28T01:55:41.868Z,42.07
2017-12-28T01:58:09.439Z,41.40
2017-12-28T02:00:37.784Z,46.20
2017-12-28T02:03:06.676Z,46.73
2017-12-28T02:05:34.247Z,50.53
2017-12-28T02:08:02.592Z,51.40
2017-12-28T02:10:30.202Z,47.83
2017-12-28T02:12:57.771Z,54.27
2017-12-28T02:15:25.371Z,35.80
2017-12-28T02:17:53.075Z,41.87
2017-12-28T02:20:20.619Z,33.17
2017-12-28T02:22:49.446Z,43.50
2017-12-28T02:25:17.080Z,35.20
2017-12-28T02:27:45.137Z,36.43
2017-12-28T02:30:12.864Z,52.73
2017-12-28T02:32:41.263Z,56.37
2017-12-28T02:35:09.676Z,66.40
2017-12-28T02:37:38.084Z,62.60
2017-12-28T02:40:05.627Z,71.63
2017-12-28T02:42:33.376Z,67.63
2017-12-28T02:45:01.029Z,60.40
2017-12-28T02:47:28.686Z,55.70
2017-12-28T02:49:56.252Z,51.03
2017-12-28T02:52:24.708Z,37.77
2017-12-28T02:54:53.040Z,32.80
2017-12-28T02:57:23.220Z,33.40
2017-12-28T02:59:50.816Z,46.23
2017-12-28T03:02:18.359Z,42.97
2017-12-28T03:04:45.924Z,48.80
2017-12-28T03:07:13.484Z,45.53
2017-12-28T03:09:41.813Z,49.50
2017-12-28T03:12:09.355Z,52.90
2017-12-28T03:14:36.924Z,47.60
2017-12-28T03:17:04.473Z,53.00
2017-12-28T03:19:32.062Z,60.43
2017-12-28T03:21:59.607Z,54.90
2017-12-28T03:24:27.924Z,53.53
2017-12-28T03:26:55.488Z,51.70
2017-12-28T03:29:23.804Z,50.30
2017-12-28T03:31:52.137Z,54.17
2017-12-28T03:34:19.694Z,53.00
2017-12-28T03:36:47.262Z,53.00
2017-12-28T03:39:15.575Z,51.37
2017-12-28T03:41:43.148Z,65.23
2017-12-28T03:44:11.464Z,69.13
2017-12-28T03:46:39.020Z,60.33
2017-12-28T03:49:06.565Z,64.07
2017-12-28T03:51:34.120Z,56.83
2017-12-28T03:54:01.659Z,62.23
2017-12-28T03:56:29.220Z,62.43
2017-12-28T03:58:56.760Z,53.70
2017-12-28T04:01:25.069Z,48.50
2017-12-28T04:03:52.628Z,52.70
2017-12-28T04:06:20.173Z,48.10
2017-12-28T04:08:47.740Z,49.47
2017-12-28T04:11:15.279Z,52.53
2017-12-28T04:13:43.603Z,52.53
2017-12-28T04:16:11.157Z,45.70
2017-12-28T04:18:38.723Z,52.67
2017-12-28T04:21:06.274Z,44.13
2017-12-28T04:23:33.831Z,46.80
2017-12-28T04:26:02.136Z,44.73
2017-12-28T04:28:30.468Z,44.37
2017-12-28T04:30:58.021Z,41.43
2017-12-28T04:33:25.594Z,37.30
2017-12-28T04:35:53.908Z,47.53
2017-12-28T04:38:22.216Z,52.07
2017-12-28T04:40:50.544Z,43.20
2017-12-28T04:43:18.083Z,41.40
2017-12-28T04:45:45.648Z,44.20
2017-12-28T04:48:13.201Z,36.90
2017-12-28T04:50:40.759Z,41.10
2017-12-28T04:53:08.303Z,38.10
2017-12-28T04:55:35.873Z,49.60
2017-12-28T04:58:03.420Z,45.80
2017-12-28T05:00:30.989Z,45.07
2017-12-28T05:02:58.537Z,45.57
2017-12-28T05:05:26.103Z,42.47
2017-12-28T05:07:53.649Z,40.70
2017-12-28T05:10:21.216Z,35.70
2017-12-28T05:12:49.539Z,36.80
2017-12-28T05:15:17.103Z,32.07
2017-12-28T05:17:45.416Z,38.10
2017-12-28T05:20:12.966Z,41.40
2017-12-28T05:22:40.527Z,45.40
2017-12-28T05:25:08.077Z,41.63
2017-12-28T05:27:35.879Z,41.00
2017-12-28T05:30:03.430Z,43.73
2017-12-28T05:32:31.761Z,38.60
2017-12-28T05:34:59.327Z,45.33
2017-12-28T05:37:26.912Z,44.57
2017-12-28T05:39:54.494Z,37.23
2017-12-28T05:42:22.811Z,40.87
2017-12-28T05:44:50.351Z,37.53
2017-12-28T05:47:17.912Z,33.53
2017-12-28T05:49:45.457Z,45.43
2017-12-28T05:52:12.991Z,35.03
2017-12-28T05:54:40.548Z,38.80
2017-12-28T05:57:08.089Z,31.97
2017-12-28T05:59:36.420Z,31.30
2017-12-28T06:02:03.963Z,28.37
2017-12-28T06:04:32.296Z,34.37
2017-12-28T06:06:59.844Z,40.17
2017-12-28T06:09:27.409Z,34.90
2017-12-28T06:11:54.946Z,33.67
2017-12-28T06:14:22.504Z,36.97
2017-12-28T06:16:50.821Z,34.00
2017-12-28T06:19:19.151Z,30.47
2017-12-28T06:21:46.691Z,39.47
2017-12-28T06:24:15.020Z,32.50
2017-12-28T06:26:42.576Z,36.17
2017-12-28T06:29:10.890Z,38.17
2017-12-28T06:31:39.228Z,37.50
2017-12-28T06:34:06.767Z,39.43
2017-12-28T06:36:35.109Z,41.33
2017-12-28T06:39:02.656Z,38.53
2017-12-28T06:41:30.980Z,38.63
2017-12-28T06:43:58.519Z,38.03
2017-12-28T06:46:26.080Z,41.03
2017-12-28T06:48:53.624Z,36.13
2017-12-28T06:51:21.952Z,40.97
2017-12-28T06:53:49.497Z,37.33
2017-12-28T06:56:17.836Z,36.30
2017-12-28T06:58:45.385Z,36.03
2017-12-28T07:01:13.715Z,36.27
2017-12-28T07:03:41.256Z,36.07
2017-12-28T07:06:08.821Z,41.20
2017-12-28T07:08:36.380Z,37.10
2017-12-28T07:11:03.925Z,40.60
2017-12-28T07:13:32.256Z,37.80
2017-12-28T07:15:59.803Z,41.57
2017-12-28T07:18:28.131Z,38.90
2017-12-28T07:20:55.676Z,35.97
2017-12-28T07:23:23.235Z,37.53
2017-12-28T07:25:50.788Z,35.93
2017-12-28T07:28:18.347Z,38.50
2017-12-28T07:30:46.652Z,32.63
2017-12-28T07:33:14.988Z,42.73
2017-12-28T07:35:42.533Z,43.97
2017-12-28T07:38:10.920Z,44.60
2017-12-28T07:40:39.274Z,43.13
2017-12-28T07:43:06.863Z,39.07
2017-12-28T07:45:34.411Z,38.30
2017-12-28T07:48:03.033Z,43.83
2017-12-28T07:50:30.643Z,43.43
2017-12-28T07:52:58.187Z,41.57
2017-12-28T07:55:30.069Z,41.40
2017-12-28T07:57:57.636Z,43.47
2017-12-28T08:00:25.227Z,43.57
2017-12-28T08:02:52.802Z,45.47
2017-12-28T08:05:20.365Z,40.03
2017-12-28T08:07:47.931Z,39.50
2017-12-28T08:10:15.488Z,45.40
2017-12-28T08:12:43.068Z,40.20
2017-12-28T08:15:10.656Z,41.50
2017-12-28T08:17:38.233Z,34.63
2017-12-28T08:20:06.579Z,40.50
2017-12-28T08:22:34.211Z,41.27
2017-12-28T08:25:01.780Z,34.47
2017-12-28T08:27:36.229Z,36.33
2017-12-28T08:30:04.564Z,38.33
2017-12-28T08:32:32.104Z,37.13
2017-12-28T08:34:59.666Z,34.50
2017-12-28T08:37:27.996Z,37.53
2017-12-28T08:39:55.536Z,37.30
2017-12-28T08:42:23.122Z,33.60
2017-12-28T08:44:50.668Z,33.27
2017-12-28T08:47:18.992Z,37.20
2017-12-28T08:49:46.544Z,38.87
2017-12-28T08:52:14.872Z,37.97
2017-12-28T08:54:42.420Z,38.77
2017-12-28T08:57:10.091Z,38.47
2017-12-28T08:59:37.691Z,40.13
2017-12-28T09:02:05.265Z,36.07
2017-12-28T09:04:32.798Z,40.90
2017-12-28T09:07:00.362Z,37.70
2017-12-28T09:09:28.667Z,47.07
2017-12-28T09:11:57.007Z,39.13
2017-12-28T09:14:24.555Z,38.83
2017-12-28T09:16:52.882Z,40.17
2017-12-28T09:19:20.432Z,44.80
2017-12-28T09:21:48.748Z,38.33
2017-12-28T09:24:17.072Z,45.27
2017-12-28T09:26:44.616Z,40.47
2017-12-28T09:29:12.198Z,36.17
2017-12-28T09:31:39.735Z,40.47
2017-12-28T09:34:07.296Z,38.13
2017-12-28T09:36:34.840Z,42.87
2017-12-28T09:39:02.400Z,38.87
2017-12-28T09:41:29.975Z,43.43
2017-12-28T09:43:57.532Z,43.77
2017-12-28T09:46:25.188Z,43.37
2017-12-28T09:48:52.762Z,39.63
2017-12-28T09:51:20.314Z,44.90
2017-12-28T09:53:47.890Z,43.80
2017-12-28T09:56:15.468Z,48.40
2017-12-28T09:58:43.038Z,46.33
2017-12-28T10:01:11.373Z,42.53
2017-12-28T10:03:38.916Z,40.07
2017-12-28T10:06:07.247Z,43.07
2017-12-28T10:08:34.797Z,41.13
2017-12-28T10:11:03.127Z,42.60
2017-12-28T10:13:30.670Z,34.13
2017-12-28T10:15:58.236Z,39.93
2017-12-28T10:18:25.775Z,39.67
2017-12-28T10:20:53.336Z,40.90
2017-12-28T10:23:21.637Z,34.23
2017-12-28T10:25:49.200Z,39.90
2017-12-28T10:28:16.756Z,37.63
2017-12-28T10:30:44.350Z,40.77
2017-12-28T10:33:11.891Z,31.17
2017-12-28T10:35:39.429Z,35.90
2017-12-28T10:38:07.001Z,30.50
2017-12-28T10:40:34.548Z,30.87
2017-12-28T10:43:02.116Z,36.50
2017-12-28T10:45:30.420Z,33.20
2017-12-28T10:47:58.748Z,33.40
2017-12-28T10:50:26.296Z,41.23
2017-12-28T10:52:54.627Z,36.50
2017-12-28T10:55:22.220Z,32.57
2017-12-28T10:57:49.779Z,42.03
2017-12-28T11:00:19.476Z,35.47
2017-12-28T11:02:47.070Z,41.67
2017-12-28T11:05:14.628Z,45.17
2017-12-28T11:07:42.195Z,35.00
2017-12-28T11:10:09.739Z,37.87
2017-12-28T11:12:40.808Z,39.53
2017-12-28T11:15:16.941Z,41.60
2017-12-28T11:17:44.809Z,49.57
2017-12-28T11:20:12.390Z,44.60
2017-12-28T11:22:44.315Z,40.67
2017-12-28T11:25:13.868Z,39.70
2017-12-28T11:27:45.749Z,41.60
2017-12-28T11:30:14.427Z,45.50
2017-12-28T11:32:44.020Z,42.57
2017-12-28T11:35:12.347Z,41.97
2017-12-28T11:37:41.273Z,36.03
2017-12-28T11:40:08.960Z,43.90
2017-12-28T11:42:36.510Z,36.40
2017-12-28T11:45:04.888Z,38.80
2017-12-28T11:47:32.409Z,43.13
2017-12-28T11:50:06.352Z,31.47
2017-12-28T11:52:33.896Z,34.47
2017-12-28T11:55:06.402Z,31.00
2017-12-28T11:57:36.733Z,33.90
2017-12-28T12:00:09.985Z,31.27
2017-12-28T12:02:41.061Z,30.43
2017-12-28T12:05:09.387Z,31.07
2017-12-28T12:07:41.879Z,32.67
2017-12-28T12:10:11.234Z,32.30
2017-12-28T12:12:38.788Z,31.30
2017-12-28T12:15:06.332Z,30.13
2017-12-28T12:17:33.903Z,32.13
2017-12-28T12:20:01.459Z,29.03
2017-12-28T12:22:29.024Z,30.30
2017-12-28T12:24:56.563Z,32.30
2017-12-28T12:27:24.139Z,28.73
2017-12-28T12:29:51.684Z,26.70
2017-12-28T12:32:19.248Z,23.93
2017-12-28T12:34:47.569Z,21.33
2017-12-28T12:37:15.118Z,24.60
2017-12-28T12:39:42.683Z,21.60
2017-12-28T12:42:10.232Z,23.03
2017-12-28T12:44:37.796Z,20.13
2017-12-28T12:47:05.353Z,18.90
2017-12-28T12:49:32.908Z,22.80
2017-12-28T12:52:00.451Z,26.77
2017-12-28T12:54:28.772Z,15.97
2017-12-28T12:56:56.311Z,17.13
2017-12-28T12:59:23.871Z,16.87
2017-12-28T13:01:51.413Z,17.27
2017-12-28T13:04:18.976Z,17.37
2017-12-28T13:06:47.288Z,18.83
2017-12-28T13:09:14.852Z,18.60
2017-12-28T13:11:43.160Z,13.43
2017-12-28T13:14:11.490Z,14.40
2017-12-28T13:16:40.295Z,15.50
2017-12-28T13:19:13.572Z,10.40
2017-12-28T13:21:43.733Z,12.93
2017-12-28T13:24:11.281Z,8.50
2017-12-28T13:26:39.049Z,12.30
2017-12-28T13:29:08.942Z,19.90
2017-12-28T13:31:36.752Z,12.37
2017-12-28T13:34:05.060Z,11.60
2017-12-28T13:36:32.636Z,10.87
2017-12-28T13:39:03.494Z,10.73
2017-12-28T13:41:31.377Z,10.90
2017-12-28T13:44:03.329Z,7.77
2017-12-28T13:46:33.257Z,6.37
2017-12-28T13:49:01.191Z,12.80
2017-12-28T13:51:28.753Z,10.87
2017-12-28T13:53:56.319Z,8.90
2017-12-28T13:56:23.876Z,5.30
2017-12-28T14:01:46.944Z,6.10
2017-12-28T14:04:15.322Z,5.33
2017-12-28T14:06:43.707Z,12.07
2017-12-28T14:09:11.237Z,9.07
2017-12-28T14:11:39.541Z,4.87
2017-12-28T14:14:07.860Z,14.40
2017-12-28T14:16:35.395Z,13.10
2017-12-28T14:19:03.000Z,5.77
2017-12-28T14:21:30.531Z,7.97
2017-12-28T14:23:58.083Z,9.10
2017-12-28T14:26:25.627Z,11.53
2017-12-28T14:28:53.183Z,10.17
2017-12-28T14:31:20.728Z,3.80
2017-12-28T14:33:51.006Z,8.30
2017-12-28T14:36:18.615Z,13.07
2017-12-28T14:38:46.976Z,7.90
2017-12-28T14:41:14.518Z,6.63
2017-12-28T14:43:42.944Z,21.63
2017-12-28T14:46:11.249Z,13.30
2017-12-28T14:48:39.545Z,10.50
2017-12-28T14:51:07.864Z,7.90
2017-12-28T14:53:35.404Z,4.17
2017-12-28T14:56:02.960Z,9.50
2017-12-28T14:58:30.495Z,4.60
2017-12-28T15:00:58.812Z,8.83
2017-12-28T15:03:26.348Z,10.63
2017-12-28T15:05:53.909Z,8.90
2017-12-28T15:08:21.439Z,6.83
2017-12-28T15:10:49.000Z,4.93
2017-12-28T15:13:16.535Z,11.03
2017-12-28T15:15:44.092Z,7.97
2017-12-28T15:18:12.391Z,9.63
2017-12-28T15:20:39.953Z,10.27
2017-12-28T15:23:07.488Z,5.57
2017-12-28T15:25:35.029Z,17.47
2017-12-28T15:28:02.601Z,11.13
2017-12-28T15:30:30.148Z,13.50
2017-12-28T15:32:57.707Z,6.20
2017-12-28T15:35:26.016Z,15.37
2017-12-28T15:37:53.575Z,18.07
2017-12-28T15:40:21.113Z,18.70
2017-12-28T15:42:48.671Z,11.43
2017-12-28T15:45:16.235Z,8.93
2017-12-28T15:47:44.556Z,10.87
2017-12-28T15:50:12.091Z,20.07
2017-12-28T15:52:39.639Z,9.13
2017-12-28T15:55:07.173Z,15.80
2017-12-28T15:57:34.726Z,12.00
2017-12-28T16:00:02.267Z,14.10
2017-12-28T16:02:30.584Z,7.33
2017-12-28T16:04:58.119Z,13.53
2017-12-28T16:07:25.676Z,14.73
2017-12-28T16:09:53.241Z,16.63
2017-12-28T16:12:20.812Z,9.27
2017-12-28T16:14:48.345Z,12.23
2017-12-28T16:17:15.889Z,17.13
2017-12-28T16:19:43.448Z,10.50
2017-12-28T16:22:11.748Z,6.03
2017-12-28T16:24:40.080Z,15.43
2017-12-28T16:27:07.619Z,9.10
2017-12-28T16:29:35.183Z,12.37
2017-12-28T16:32:02.720Z,19.90
2017-12-28T16:34:30.268Z,8.17
2017-12-28T16:36:57.811Z,13.17
2017-12-28T16:39:25.361Z,10.33
2017-12-28T16:41:52.956Z,17.80
2017-12-28T16:44:20.512Z,13.73
2017-12-28T16:46:48.811Z,10.77
2017-12-28T16:49:17.132Z,9.90
2017-12-28T16:51:44.668Z,21.70
2017-12-28T16:54:12.223Z,18.43
2017-12-28T16:56:39.761Z,13.77
2017-12-28T16:59:08.060Z,13.83
2017-12-28T17:01:36.324Z,22.37
2017-12-28T17:04:03.869Z,11.13
2017-12-28T17:09:06.101Z,16.40
2017-12-28T17:11:34.430Z,18.03
2017-12-28T17:14:01.971Z,15.60
2017-12-28T17:16:30.288Z,15.03
2017-12-28T17:18:58.595Z,21.47
2017-12-28T17:21:26.183Z,12.27
2017-12-28T17:23:54.449Z,6.00
2017-12-28T17:26:22.067Z,15.30
2017-12-28T17:28:49.612Z,15.10
2017-12-28T17:31:17.181Z,12.47
2017-12-28T17:33:44.719Z,20.63
2017-12-28T17:36:12.260Z,14.33
2017-12-28T17:38:39.820Z,14.93
2017-12-28T17:41:07.356Z,10.67
2017-12-28T17:43:35.681Z,16.17
2017-12-28T17:46:03.223Z,20.63
2017-12-28T17:48:30.794Z,13.83
2017-12-28T17:50:58.332Z,20.37
2017-12-28T17:53:25.897Z,14.57
2017-12-28T17:55:53.437Z,19.10
2017-12-28T17:58:21.008Z,24.97
2017-12-28T18:00:48.547Z,18.17
2017-12-28T18:03:16.123Z,7.83
2017-12-28T18:05:44.423Z,9.93
2017-12-28T18:08:12.749Z,12.43
2017-12-28T18:10:40.360Z,18.20
2017-12-28T18:13:07.940Z,12.40
2017-12-28T18:15:35.486Z,21.53
2017-12-28T18:18:03.817Z,15.20
2017-12-28T18:20:31.360Z,12.27
2017-12-28T18:22:59.679Z,5.10
2017-12-28T18:25:27.224Z,22.10
2017-12-28T18:27:54.756Z,12.23
2017-12-28T18:30:22.332Z,22.37
2017-12-28T18:32:49.871Z,13.77
2017-12-28T18:35:18.931Z,13.23
2017-12-28T18:37:47.231Z,19.10
2017-12-28T18:40:15.560Z,13.17
2017-12-28T18:42:43.120Z,13.30
2017-12-28T18:45:10.684Z,15.17
2017-12-28T18:47:38.988Z,10.90
2017-12-28T18:50:07.307Z,8.40
2017-12-28T18:52:34.848Z,7.93
2017-12-28T18:55:02.407Z,10.50
2017-12-28T18:57:29.997Z,17.47
2017-12-28T18:59:57.553Z,14.70
2017-12-28T19:02:25.091Z,12.10
2017-12-28T19:04:52.668Z,10.27
2017-12-28T19:07:20.220Z,12.87
2017-12-28T19:09:47.764Z,19.07
2017-12-28T19:12:16.088Z,15.80
2017-12-28T19:14:43.624Z,13.47
2017-12-28T19:17:11.196Z,18.03
2017-12-28T19:19:38.732Z,9.63
2017-12-28T19:22:07.051Z,10.77
2017-12-28T19:24:34.588Z,13.53
2017-12-28T19:27:04.006Z,9.90
2017-12-28T19:29:31.641Z,14.90
2017-12-28T19:31:59.200Z,15.30
2017-12-28T19:34:27.496Z,12.87
2017-12-28T19:36:55.048Z,5.40
2017-12-28T19:39:22.589Z,22.30
2017-12-28T19:41:50.140Z,7.63
2017-12-28T19:44:17.704Z,18.93
2017-12-28T19:46:45.252Z,9.80
2017-12-28T19:49:12.808Z,10.90
2017-12-28T19:51:41.118Z,12.83
2017-12-28T19:54:09.440Z,9.00
2017-12-28T19:56:37.032Z,11.60
2017-12-28T19:59:04.591Z,17.53
2017-12-28T20:01:32.921Z,9.60
2017-12-28T20:04:00.481Z,11.33
2017-12-28T20:06:37.531Z,7.90
2017-12-28T20:09:06.268Z,18.80
2017-12-28T20:11:35.053Z,12.60
2017-12-28T20:14:03.067Z,7.93
2017-12-28T20:16:30.668Z,10.90
2017-12-28T20:18:58.245Z,11.33
2017-12-28T20:21:25.799Z,20.23
2017-12-28T20:23:53.339Z,13.73
2017-12-28T20:26:24.080Z,17.00
2017-12-28T20:28:55.296Z,10.53
2017-12-28T20:31:25.018Z,18.37
2017-12-28T20:33:53.790Z,15.37
2017-12-28T20:36:30.884Z,16.73
2017-12-28T20:39:04.888Z,17.30
2017-12-28T20:41:33.295Z,14.20
2017-12-28T20:44:00.827Z,15.57
2017-12-28T20:46:30.628Z,10.87
2017-12-28T20:48:59.119Z,13.73
2017-12-28T20:51:26.682Z,14.07
2017-12-28T20:54:01.292Z,13.03
2017-12-28T20:56:36.808Z,13.97
2017-12-28T20:59:05.455Z,19.20
2017-12-28T21:01:33.061Z,16.63
2017-12-28T21:04:00.596Z,17.70
2017-12-28T21:06:30.849Z,15.20
2017-12-28T21:09:00.611Z,7.83
2017-12-28T21:11:31.296Z,16.80
2017-12-28T21:13:59.624Z,16.20
2017-12-28T21:16:27.926Z,9.87
2017-12-28T21:18:56.260Z,12.83
2017-12-28T21:21:23.987Z,11.30
2017-12-28T21:23:53.455Z,9.10
2017-12-28T21:26:20.999Z,8.30
2017-12-28T21:28:48.548Z,12.63
2017-12-28T21:31:16.094Z,15.07
2017-12-28T21:33:44.423Z,9.23
2017-12-28T21:36:11.968Z,13.13
2017-12-28T21:38:40.283Z,15.77
2017-12-28T21:41:08.588Z,13.57
2017-12-28T21:43:36.155Z,17.83
2017-12-28T21:46:04.465Z,12.73
2017-12-28T21:48:32.836Z,17.93
2017-12-28T21:51:00.385Z,17.30
2017-12-28T21:53:27.920Z,17.30
2017-12-28T21:55:55.540Z,25.30
2017-12-28T21:58:23.089Z,21.57
2017-12-28T22:00:52.185Z,13.77
2017-12-28T22:03:19.736Z,16.53
2017-12-28T22:05:50.494Z,14.23
2017-12-28T22:08:18.630Z,8.23
2017-12-28T22:10:46.308Z,11.27
2017-12-28T22:13:14.656Z,15.80
2017-12-28T22:15:42.934Z,15.93
2017-12-28T22:18:11.044Z,12.83
2017-12-28T22:20:40.663Z,16.43
2017-12-28T22:23:12.436Z,17.03
2017-12-28T22:25:45.218Z,13.40
2017-12-28T22:28:12.875Z,15.23
2017-12-28T22:30:40.632Z,11.57
2017-12-28T22:33:09.684Z,15.33
2017-12-28T22:35:38.085Z,11.60
2017-12-28T22:38:06.402Z,11.87
2017-12-28T22:40:35.506Z,12.63
2017-12-28T22:43:06.289Z,18.97
2017-12-28T22:45:34.005Z,9.13
2017-12-28T22:48:01.664Z,20.23
2017-12-28T22:50:29.306Z,13.53
2017-12-28T22:53:04.431Z,18.03
2017-12-28T22:55:32.307Z,18.53
2017-12-28T22:58:07.107Z,11.80
2017-12-28T23:00:35.057Z,20.23
2017-12-28T23:03:02.625Z,13.10
2017-12-28T23:05:31.151Z,10.10
2017-12-28T23:07:58.758Z,18.77
2017-12-28T23:10:26.311Z,13.17
2017-12-28T23:12:53.871Z,12.63
2017-12-28T23:15:22.281Z,15.40
2017-12-28T23:17:51.174Z,16.57
2017-12-28T23:20:19.584Z,21.53
2017-12-28T23:22:47.904Z,11.77
2017-12-28T23:25:15.511Z,15.90
2017-12-28T23:27:43.053Z,17.80
2017-12-28T23:30:10.882Z,12.10
2017-12-28T23:32:38.447Z,16.93
2017-12-28T23:35:06.226Z,15.20
2017-12-28T23:37:34.401Z,14.03
2017-12-28T23:40:02.457Z,25.30
2017-12-28T23:42:30.246Z,20.70
2017-12-28T23:44:58.094Z,19.30
2017-12-28T23:47:26.858Z,16.63
2017-12-28T23:49:54.673Z,13.27
2017-12-28T23:52:22.390Z,16.00
2017-12-28T23:54:51.299Z,22.70
2017-12-28T23:57:19.139Z,21.70
2017-12-28T23:59:47.069Z,16.73
